createdAt,value
2022-09-28T00:00:24.982Z,14.31
2022-09-28T00:03:15.786Z,14.26
2022-09-28T00:06:03.930Z,14.18
2022-09-28T00:08:35.994Z,14.13
2022-09-28T00:11:06.642Z,14.10
2022-09-28T00:13:37.251Z,14.13
2022-09-28T00:16:18.999Z,14.16
2022-09-28T00:18:51.426Z,14.21
2022-09-28T00:21:22.574Z,14.27
2022-09-28T00:24:24.148Z,14.21
2022-09-28T00:27:04.266Z,14.14
2022-09-28T00:29:38.483Z,14.13
2022-09-28T00:32:15.895Z,14.12
2022-09-28T00:34:53.860Z,14.07
2022-09-28T00:37:29.321Z,14.09
2022-09-28T00:40:06.125Z,14.09
2022-09-28T00:42:45.182Z,14.08
2022-09-28T00:45:16.994Z,13.94
2022-09-28T00:47:55.284Z,13.98
2022-09-28T00:50:32.821Z,14.06
2022-09-28T00:53:14.572Z,14.14
2022-09-28T00:56:16.332Z,14.24
2022-09-28T00:58:50.629Z,14.19
2022-09-28T01:01:22.649Z,14.13
2022-09-28T01:03:54.991Z,14.29
2022-09-28T01:06:31.347Z,14.42
2022-09-28T01:09:07.940Z,14.60
2022-09-28T01:11:43.154Z,14.79
2022-09-28T01:14:25.801Z,14.93
2022-09-28T01:18:05.390Z,15.00
2022-09-28T01:21:08.301Z,15.13
2022-09-28T01:24:36.073Z,15.30
2022-09-28T01:27:23.290Z,15.40
2022-09-28T01:30:22.080Z,15.45
2022-09-28T01:33:12.923Z,15.49
2022-09-28T01:36:05.124Z,15.63
2022-09-28T01:38:54.246Z,15.70
2022-09-28T01:41:32.188Z,15.69
2022-09-28T01:44:15.309Z,15.79
2022-09-28T01:46:50.298Z,15.80
2022-09-28T01:49:34.386Z,15.83
2022-09-28T01:52:41.590Z,15.91
2022-09-28T01:55:27.360Z,15.93
2022-09-28T01:58:40.078Z,15.93
2022-09-28T02:01:42.235Z,15.89
2022-09-28T02:04:19.228Z,15.86
2022-09-28T02:07:20.681Z,15.81
2022-09-28T02:09:58.681Z,15.67
2022-09-28T02:12:35.769Z,15.58
2022-09-28T02:15:20.911Z,15.54
2022-09-28T02:17:49.469Z,15.58
2022-09-28T02:20:17.897Z,15.53
2022-09-28T02:22:55.895Z,15.45
2022-09-28T02:25:40.845Z,15.48
2022-09-28T02:28:11.900Z,15.50
2022-09-28T02:30:43.050Z,15.59
2022-09-28T02:33:21.359Z,15.66
2022-09-28T02:35:52.195Z,15.76
2022-09-28T02:38:23.950Z,15.74
2022-09-28T02:42:04.470Z,15.70
2022-09-28T02:45:22.471Z,15.62
2022-09-28T02:48:16.035Z,15.62
2022-09-28T02:51:44.208Z,15.56
2022-09-28T02:54:31.854Z,15.51
2022-09-28T02:57:48.242Z,15.53
2022-09-28T03:00:31.696Z,15.52
2022-09-28T03:03:45.752Z,15.41
2022-09-28T03:06:36.419Z,15.40
2022-09-28T03:09:26.711Z,15.44
2022-09-28T03:12:03.589Z,15.52
2022-09-28T03:14:35.241Z,15.56
2022-09-28T03:17:06.216Z,15.48
2022-09-28T03:19:37.219Z,15.46
2022-09-28T03:22:15.429Z,15.51
2022-09-28T03:24:44.292Z,15.47
2022-09-28T03:27:16.074Z,15.40
2022-09-28T03:29:44.453Z,15.35
2022-09-28T03:32:18.057Z,15.24
2022-09-28T03:34:50.015Z,15.20
2022-09-28T03:37:28.224Z,15.23
2022-09-28T03:39:59.478Z,15.22
2022-09-28T03:42:30.813Z,15.26
2022-09-28T03:45:04.726Z,15.22
2022-09-28T03:47:33.405Z,15.28
2022-09-28T03:50:12.187Z,15.33
2022-09-28T03:52:43.269Z,15.42
2022-09-28T03:55:11.748Z,15.44
2022-09-28T03:57:58.358Z,15.51
2022-09-28T04:00:30.043Z,15.54
2022-09-28T04:03:01.046Z,15.60
2022-09-28T04:05:37.071Z,15.67
2022-09-28T04:08:05.794Z,15.72
2022-09-28T04:10:37.241Z,15.79
2022-09-28T04:13:05.723Z,15.81
2022-09-28T04:15:34.405Z,15.89
2022-09-28T04:18:15.173Z,16.00
2022-09-28T04:21:23.679Z,16.07
2022-09-28T04:24:06.406Z,16.10
2022-09-28T04:26:40.824Z,16.17
2022-09-28T04:29:18.358Z,16.22
2022-09-28T04:31:55.313Z,16.23
2022-09-28T04:34:43.180Z,16.29
2022-09-28T04:37:25.743Z,16.36
2022-09-28T04:40:09.986Z,16.33
2022-09-28T04:42:59.485Z,16.33
2022-09-28T04:45:33.124Z,16.40
2022-09-28T04:48:10.984Z,16.50
2022-09-28T04:51:05.659Z,16.59
2022-09-28T04:53:42.739Z,16.64
2022-09-28T04:56:17.259Z,16.66
2022-09-28T04:58:58.241Z,16.68
2022-09-28T05:01:32.832Z,16.66
2022-09-28T05:04:07.277Z,16.66
2022-09-28T05:07:28.841Z,16.68
2022-09-28T05:10:09.264Z,16.71
2022-09-28T05:12:59.963Z,16.70
2022-09-28T05:16:10.627Z,16.71
2022-09-28T05:19:06.459Z,16.73
2022-09-28T05:22:04.935Z,16.72
2022-09-28T05:24:42.841Z,16.69
2022-09-28T05:27:23.398Z,16.73
2022-09-28T05:30:05.749Z,16.75
2022-09-28T05:33:02.860Z,16.79
2022-09-28T05:35:53.833Z,16.83
2022-09-28T05:38:38.932Z,16.91
2022-09-28T05:41:13.546Z,16.98
2022-09-28T05:43:51.764Z,16.92
2022-09-28T05:46:22.053Z,16.93
2022-09-28T05:48:56.405Z,16.84
2022-09-28T05:51:25.811Z,16.85
2022-09-28T05:54:06.361Z,16.81
2022-09-28T05:56:39.768Z,16.83
2022-09-28T05:59:09.500Z,16.85
2022-09-28T06:01:38.603Z,17.09
2022-09-28T06:04:12.886Z,17.49
2022-09-28T06:06:44.953Z,17.71
2022-09-28T06:09:25.900Z,17.80
2022-09-28T06:12:09.150Z,17.69
2022-09-28T06:14:53.603Z,16.87
2022-09-28T06:17:23.004Z,16.13
2022-09-28T06:20:02.238Z,15.47
2022-09-28T06:22:54.167Z,15.16
2022-09-28T06:25:23.475Z,15.76
2022-09-28T06:28:14.166Z,16.42
2022-09-28T06:30:48.381Z,17.07
2022-09-28T06:33:18.856Z,17.45
2022-09-28T06:35:49.648Z,17.63
2022-09-28T06:38:18.894Z,17.69
2022-09-28T06:40:50.027Z,17.76
2022-09-28T06:43:19.179Z,17.70
2022-09-28T06:46:11.636Z,17.56
2022-09-28T06:49:20.957Z,17.39
2022-09-28T06:52:15.141Z,17.32
2022-09-28T06:55:02.915Z,17.33
2022-09-28T06:57:40.159Z,17.37
2022-09-28T07:00:12.427Z,17.41
2022-09-28T07:02:43.178Z,17.46
2022-09-28T07:05:30.379Z,17.58
2022-09-28T07:08:31.217Z,17.61
2022-09-28T07:11:12.086Z,17.99
2022-09-28T07:13:54.292Z,18.24
2022-09-28T07:16:33.406Z,17.85
2022-09-28T07:19:15.631Z,17.77
2022-09-28T07:22:03.899Z,17.74
2022-09-28T07:24:44.839Z,18.11
2022-09-28T07:27:37.441Z,18.51
2022-09-28T07:30:57.984Z,17.66
2022-09-28T07:33:58.821Z,16.68
2022-09-28T07:36:59.044Z,16.03
2022-09-28T07:39:30.596Z,16.31
2022-09-28T07:42:03.039Z,17.01
2022-09-28T07:44:41.178Z,17.40
2022-09-28T07:47:15.265Z,17.74
2022-09-28T07:50:10.903Z,18.07
2022-09-28T07:52:49.522Z,18.24
2022-09-28T07:55:31.416Z,18.20
2022-09-28T07:58:15.257Z,17.44
2022-09-28T08:01:23.360Z,16.57
2022-09-28T08:04:01.044Z,16.42
2022-09-28T08:06:35.214Z,17.02
2022-09-28T08:09:21.386Z,17.58
2022-09-28T08:12:18.113Z,18.20
2022-09-28T08:15:10.989Z,18.27
2022-09-28T08:18:10.982Z,17.95
2022-09-28T08:21:06.092Z,18.19
2022-09-28T08:23:34.671Z,18.49
2022-09-28T08:26:10.121Z,18.00
2022-09-28T08:29:28.661Z,17.56
2022-09-28T08:32:15.373Z,17.21
2022-09-28T08:35:04.474Z,17.08
2022-09-28T08:38:00.881Z,17.34
2022-09-28T08:41:50.042Z,18.20
2022-09-28T08:45:24.262Z,18.21
2022-09-28T08:48:52.274Z,17.29
2022-09-28T08:52:23.643Z,16.70
2022-09-28T08:55:42.964Z,16.80
2022-09-28T08:58:34.690Z,17.87
2022-09-28T09:01:09.051Z,18.47
2022-09-28T09:03:46.499Z,18.47
2022-09-28T09:06:48.461Z,17.87
2022-09-28T09:10:49.002Z,17.44
2022-09-28T09:14:28.652Z,16.97
2022-09-28T09:18:03.310Z,16.44
2022-09-28T09:22:03.305Z,16.17
2022-09-28T09:25:57.474Z,17.18
2022-09-28T09:29:42.821Z,18.04
2022-09-28T09:32:59.693Z,17.49
2022-09-28T09:36:01.725Z,16.81
2022-09-28T09:40:03.466Z,16.37
2022-09-28T09:43:14.090Z,16.00
2022-09-28T09:46:51.791Z,16.05
2022-09-28T09:50:12.305Z,17.27
2022-09-28T09:52:56.031Z,17.78
2022-09-28T09:55:50.429Z,17.41
2022-09-28T09:59:10.388Z,16.92
2022-09-28T10:01:58.525Z,16.54
2022-09-28T10:04:49.821Z,16.29
2022-09-28T10:07:55.511Z,16.24
2022-09-28T10:11:26.168Z,16.23
2022-09-28T10:13:55.963Z,16.39
2022-09-28T10:16:54.171Z,16.59
2022-09-28T10:19:47.909Z,16.82
2022-09-28T10:22:35.129Z,17.04
2022-09-28T10:25:10.879Z,17.26
2022-09-28T10:27:47.038Z,17.51
2022-09-28T10:30:42.623Z,17.72
2022-09-28T10:33:58.137Z,17.75
2022-09-28T10:36:29.730Z,17.73
2022-09-28T10:39:01.184Z,17.81
2022-09-28T10:41:48.148Z,17.82
2022-09-28T10:44:23.391Z,17.72
2022-09-28T10:47:09.956Z,17.67
2022-09-28T10:49:46.747Z,17.70
2022-09-28T10:52:43.666Z,17.89
2022-09-28T10:55:32.543Z,18.09
2022-09-28T10:58:35.817Z,18.18
2022-09-28T11:01:10.921Z,18.21
2022-09-28T11:04:13.555Z,18.22
2022-09-28T11:06:45.139Z,18.32
2022-09-28T11:09:34.201Z,18.49
2022-09-28T11:12:14.555Z,18.66
2022-09-28T11:14:52.790Z,18.75
2022-09-28T11:17:55.627Z,18.79
2022-09-28T11:21:19.464Z,18.92
2022-09-28T11:24:08.187Z,18.96
2022-09-28T11:26:58.170Z,18.95
2022-09-28T11:29:45.520Z,18.96
2022-09-28T11:32:24.539Z,19.02
2022-09-28T11:35:25.421Z,19.05
2022-09-28T11:37:59.358Z,19.00
2022-09-28T11:41:48.924Z,18.80
2022-09-28T11:44:59.211Z,18.64
2022-09-28T11:48:01.822Z,18.49
2022-09-28T11:50:55.094Z,18.41
2022-09-28T11:53:54.995Z,18.31
2022-09-28T11:56:41.422Z,18.18
2022-09-28T11:59:45.828Z,17.95
2022-09-28T12:02:30.418Z,17.66
2022-09-28T12:05:50.347Z,17.45
2022-09-28T12:08:58.339Z,17.29
2022-09-28T12:12:32.766Z,17.14
2022-09-28T12:16:10.352Z,17.05
2022-09-28T12:19:19.500Z,17.02
2022-09-28T12:22:16.049Z,17.02
2022-09-28T12:24:56.407Z,17.04
2022-09-28T12:28:10.853Z,17.06
2022-09-28T12:30:45.048Z,17.13
2022-09-28T12:33:24.432Z,17.19
2022-09-28T12:36:32.819Z,17.21
2022-09-28T12:39:53.556Z,17.26
2022-09-28T12:43:04.499Z,17.32
2022-09-28T12:46:16.664Z,17.49
2022-09-28T12:50:37.189Z,17.60
2022-09-28T12:54:15.687Z,17.51
2022-09-28T12:56:58.342Z,17.52
2022-09-28T13:00:32.461Z,17.57
2022-09-28T13:04:39.683Z,17.46
2022-09-28T13:07:50.755Z,17.25
2022-09-28T13:10:35.806Z,17.01
2022-09-28T13:13:34.648Z,16.83
2022-09-28T13:17:12.181Z,16.72
2022-09-28T13:20:40.422Z,16.55
2022-09-28T13:24:32.302Z,16.40
2022-09-28T13:28:01.448Z,16.34
2022-09-28T13:30:42.093Z,16.39
2022-09-28T13:33:40.048Z,16.42
2022-09-28T13:37:24.611Z,16.52
2022-09-28T13:40:12.212Z,16.65
2022-09-28T13:43:19.574Z,16.72
2022-09-28T13:45:58.737Z,16.84
2022-09-28T13:50:05.038Z,16.96
2022-09-28T13:52:55.329Z,17.17
2022-09-28T13:55:50.739Z,17.23
2022-09-28T13:58:29.532Z,17.25
2022-09-28T14:01:08.377Z,17.23
2022-09-28T14:05:19.371Z,17.19
2022-09-28T14:08:34.387Z,17.10
2022-09-28T14:11:35.003Z,17.02
2022-09-28T14:14:36.766Z,16.87
2022-09-28T14:17:22.309Z,16.76
2022-09-28T14:20:07.996Z,16.63
2022-09-28T14:23:38.249Z,16.50
2022-09-28T14:26:13.972Z,16.35
2022-09-28T14:28:54.589Z,16.26
2022-09-28T14:31:46.055Z,16.19
2022-09-28T14:34:34.404Z,16.10
2022-09-28T14:37:57.958Z,16.02
2022-09-28T14:41:24.924Z,15.91
2022-09-28T14:44:09.080Z,15.79
2022-09-28T14:46:48.888Z,15.66
2022-09-28T14:50:00.801Z,15.72
2022-09-28T14:53:04.498Z,16.70
2022-09-28T14:55:48.119Z,17.45
2022-09-28T14:58:33.693Z,17.91
2022-09-28T15:01:20.343Z,18.24
2022-09-28T15:03:59.962Z,18.37
2022-09-28T15:06:49.969Z,17.81
2022-09-28T15:09:56.165Z,17.13
2022-09-28T15:12:47.286Z,16.59
2022-09-28T15:15:29.021Z,16.14
2022-09-28T15:18:18.510Z,15.74
2022-09-28T15:20:59.865Z,15.35
2022-09-28T15:23:41.317Z,15.07
2022-09-28T15:26:35.556Z,14.81
2022-09-28T15:29:17.011Z,14.54
2022-09-28T15:31:52.203Z,14.29
2022-09-28T15:34:57.049Z,14.21
2022-09-28T15:37:34.395Z,15.05
2022-09-28T15:40:04.103Z,15.75
2022-09-28T15:42:36.991Z,16.18
2022-09-28T15:46:03.726Z,16.47
2022-09-28T15:49:07.641Z,16.71
2022-09-28T15:51:52.410Z,16.83
2022-09-28T15:54:45.886Z,16.93
2022-09-28T15:57:38.419Z,16.95
2022-09-28T16:00:32.013Z,16.98
2022-09-28T16:03:21.260Z,16.94
2022-09-28T16:05:58.357Z,16.10
2022-09-28T16:08:49.762Z,15.23
2022-09-28T16:11:27.315Z,14.67
2022-09-28T16:14:19.510Z,14.20
2022-09-28T16:17:00.407Z,13.72
2022-09-28T16:19:48.827Z,13.30
2022-09-28T16:22:28.105Z,12.97
2022-09-28T16:25:02.351Z,12.61
2022-09-28T16:27:49.366Z,12.41
2022-09-28T16:30:24.472Z,13.02
2022-09-28T16:33:35.375Z,13.74
2022-09-28T16:36:14.313Z,14.34
2022-09-28T16:38:51.455Z,14.72
2022-09-28T16:41:27.523Z,14.94
2022-09-28T16:44:01.054Z,15.10
2022-09-28T16:46:39.362Z,15.18
2022-09-28T16:49:23.806Z,15.23
2022-09-28T16:51:58.243Z,15.31
2022-09-28T16:54:53.834Z,15.42
2022-09-28T16:57:27.645Z,15.52
2022-09-28T17:00:02.131Z,15.64
2022-09-28T17:02:46.339Z,15.73
2022-09-28T17:05:21.116Z,15.78
2022-09-28T17:08:22.674Z,15.80
2022-09-28T17:11:14.867Z,15.76
2022-09-28T17:14:06.669Z,14.82
2022-09-28T17:19:36.732Z,13.15
2022-09-28T17:22:14.599Z,12.66
2022-09-28T17:24:57.831Z,12.35
2022-09-28T17:28:45.881Z,12.83
2022-09-28T17:31:46.976Z,13.74
2022-09-28T17:35:19.788Z,14.08
2022-09-28T17:37:56.774Z,14.35
2022-09-28T17:40:48.623Z,14.51
2022-09-28T17:43:21.380Z,14.64
2022-09-28T17:45:55.056Z,14.77
2022-09-28T17:48:26.098Z,14.86
2022-09-28T17:50:54.304Z,14.91
2022-09-28T17:53:42.245Z,14.97
2022-09-28T17:56:10.825Z,15.03
2022-09-28T17:58:41.940Z,15.09
2022-09-28T18:01:12.905Z,15.15
2022-09-28T18:03:52.237Z,15.21
2022-09-28T18:06:22.971Z,15.31
2022-09-28T18:08:53.807Z,15.38
2022-09-28T18:11:22.593Z,15.48
2022-09-28T18:13:54.125Z,15.52
2022-09-28T18:16:23.431Z,15.55
2022-09-28T18:18:54.384Z,15.56
2022-09-28T18:21:26.242Z,15.58
2022-09-28T18:23:54.598Z,15.60
2022-09-28T18:26:22.720Z,15.62
2022-09-28T18:28:55.352Z,15.62
2022-09-28T18:31:24.141Z,15.61
2022-09-28T18:34:05.636Z,15.57
2022-09-28T18:36:39.139Z,15.54
2022-09-28T18:39:07.484Z,15.54
2022-09-28T18:41:44.452Z,15.37
2022-09-28T18:44:18.741Z,14.45
2022-09-28T18:46:47.501Z,13.59
2022-09-28T18:49:18.904Z,12.93
2022-09-28T18:51:50.273Z,12.74
2022-09-28T18:54:18.900Z,13.25
2022-09-28T18:56:58.720Z,13.72
2022-09-28T18:59:35.598Z,14.04
2022-09-28T19:02:12.087Z,14.21
2022-09-28T19:04:43.656Z,14.37
2022-09-28T19:07:16.973Z,14.52
2022-09-28T19:09:48.087Z,14.63
2022-09-28T19:12:22.417Z,14.68
2022-09-28T19:14:50.648Z,14.72
2022-09-28T19:17:21.893Z,14.74
2022-09-28T19:19:53.139Z,14.76
2022-09-28T19:22:21.485Z,14.75
2022-09-28T19:25:01.512Z,14.78
2022-09-28T19:27:30.048Z,14.79
2022-09-28T19:30:01.189Z,14.82
2022-09-28T19:32:32.172Z,14.86
2022-09-28T19:35:00.917Z,14.92
2022-09-28T19:37:39.415Z,14.86
2022-09-28T19:40:13.528Z,14.12
2022-09-28T19:42:41.987Z,13.28
2022-09-28T19:45:13.672Z,12.66
2022-09-28T19:47:45.126Z,12.18
2022-09-28T19:50:16.073Z,11.78
2022-09-28T19:52:47.515Z,11.58
2022-09-28T19:55:17.360Z,12.18
2022-09-28T19:57:50.515Z,12.89
2022-09-28T20:00:19.249Z,13.40
2022-09-28T20:02:47.897Z,13.74
2022-09-28T20:05:16.316Z,13.99
2022-09-28T20:07:47.098Z,14.18
2022-09-28T20:10:15.479Z,14.32
2022-09-28T20:12:48.198Z,14.46
2022-09-28T20:15:16.781Z,14.64
2022-09-28T20:17:48.115Z,14.75
2022-09-28T20:20:19.575Z,14.82
2022-09-28T20:22:50.563Z,14.87
2022-09-28T20:25:21.762Z,14.97
2022-09-28T20:27:52.347Z,15.05
2022-09-28T20:30:21.034Z,15.06
2022-09-28T20:32:49.745Z,14.67
2022-09-28T20:35:30.370Z,13.93
2022-09-28T20:38:09.143Z,13.22
2022-09-28T20:40:38.115Z,12.89
2022-09-28T20:43:09.956Z,13.40
2022-09-28T20:45:40.794Z,13.99
2022-09-28T20:48:14.199Z,14.42
2022-09-28T20:50:48.404Z,14.72
2022-09-28T20:53:37.559Z,14.92
2022-09-28T20:56:20.280Z,15.12
2022-09-28T20:58:56.940Z,15.30
2022-09-28T21:01:33.977Z,15.30
2022-09-28T21:04:08.239Z,14.52
2022-09-28T21:06:47.397Z,13.75
2022-09-28T21:09:26.611Z,13.16
2022-09-28T21:12:03.944Z,12.79
2022-09-28T21:14:40.534Z,13.24
2022-09-28T21:17:14.623Z,13.97
2022-09-28T21:19:48.979Z,14.51
2022-09-28T21:22:17.425Z,14.84
2022-09-28T21:24:51.798Z,15.01
2022-09-28T21:27:50.619Z,15.20
2022-09-28T21:30:21.214Z,15.41
2022-09-28T21:33:02.995Z,15.57
2022-09-28T21:35:43.057Z,15.50
2022-09-28T21:38:12.212Z,14.71
2022-09-28T21:41:08.314Z,14.01
2022-09-28T21:43:39.321Z,13.43
2022-09-28T21:46:12.498Z,13.12
2022-09-28T21:48:43.963Z,13.57
2022-09-28T21:51:22.886Z,14.24
2022-09-28T21:54:06.713Z,14.73
2022-09-28T21:56:39.660Z,15.04
2022-09-28T21:59:07.726Z,15.23
2022-09-28T22:01:35.991Z,15.35
2022-09-28T22:04:10.066Z,15.47
2022-09-28T22:06:45.845Z,15.46
2022-09-28T22:09:23.826Z,14.80
2022-09-28T22:12:02.681Z,13.96
2022-09-28T22:14:34.317Z,13.33
2022-09-28T22:17:05.343Z,12.92
2022-09-28T22:19:42.780Z,13.28
2022-09-28T22:22:10.985Z,13.92
2022-09-28T22:24:42.044Z,14.40
2022-09-28T22:27:10.559Z,14.71
2022-09-28T22:30:22.626Z,14.88
2022-09-28T22:32:51.110Z,15.11
2022-09-28T22:35:19.363Z,15.24
2022-09-28T22:37:50.404Z,15.36
2022-09-28T22:40:18.735Z,15.42
2022-09-28T22:42:50.349Z,15.51
2022-09-28T22:45:18.841Z,15.57
2022-09-28T22:47:54.739Z,15.06
2022-09-28T22:50:25.543Z,14.22
2022-09-28T22:52:53.950Z,13.57
2022-09-28T22:55:24.335Z,13.09
2022-09-28T22:57:55.491Z,12.70
2022-09-28T23:00:26.761Z,12.43
2022-09-28T23:03:01.291Z,12.84
2022-09-28T23:05:31.871Z,13.58
2022-09-28T23:08:00.384Z,14.15
2022-09-28T23:10:34.045Z,14.52
2022-09-28T23:13:05.803Z,14.82
2022-09-28T23:15:37.025Z,15.05
2022-09-28T23:18:05.936Z,15.15
2022-09-28T23:20:41.891Z,15.30
2022-09-28T23:23:15.697Z,15.44
2022-09-28T23:25:50.423Z,15.49
2022-09-28T23:28:35.696Z,15.54
2022-09-28T23:31:14.820Z,15.46
2022-09-28T23:33:43.203Z,14.75
2022-09-28T23:36:20.344Z,13.89
2022-09-28T23:39:12.282Z,13.23
2022-09-28T23:41:43.051Z,12.66
2022-09-28T23:44:18.069Z,12.55
2022-09-28T23:46:48.998Z,13.20
2022-09-28T23:49:20.005Z,13.81
2022-09-28T23:51:56.262Z,14.22
2022-09-28T23:54:27.385Z,14.48
2022-09-28T23:56:58.301Z,14.67
2022-09-28T23:59:28.830Z,14.86
